sensor_id;sensor_type;location;lat;lon;timestamp;temperature;humidity
18577;DHT22;9418;52.694;13.294;2024-01-30T00:01:51;1.60;74.20
18577;DHT22;9418;52.694;13.294;2024-01-30T00:04:18;1.60;85.50
18577;DHT22;9418;52.694;13.294;2024-01-30T00:06:45;1.60;99.90
18577;DHT22;9418;52.694;13.294;2024-01-30T00:09:12;1.60;99.90
18577;DHT22;9418;52.694;13.294;2024-01-30T00:11:39;1.60;93.70
18577;DHT22;9418;52.694;13.294;2024-01-30T00:14:05;1.70;99.90
18577;DHT22;9418;52.694;13.294;2024-01-30T00:16:32;1.60;77.20
18577;DHT22;9418;52.694;13.294;2024-01-30T00:18:59;1.70;94.40
18577;DHT22;9418;52.694;13.294;2024-01-30T00:21:27;1.60;21.80
18577;DHT22;9418;52.694;13.294;2024-01-30T00:23:55;1.60;21.90
18577;DHT22;9418;52.694;13.294;2024-01-30T00:26:22;1.70;21.40
18577;DHT22;9418;52.694;13.294;2024-01-30T00:28:48;1.60;28.60
18577;DHT22;9418;52.694;13.294;2024-01-30T00:31:15;1.60;26.00
18577;DHT22;9418;52.694;13.294;2024-01-30T00:33:42;1.50;23.30
18577;DHT22;9418;52.694;13.294;2024-01-30T00:36:09;1.50;21.30
18577;DHT22;9418;52.694;13.294;2024-01-30T00:38:35;1.50;74.20
18577;DHT22;9418;52.694;13.294;2024-01-30T00:41:04;1.50;98.70
18577;DHT22;9418;52.694;13.294;2024-01-30T00:43:30;1.50;99.90
18577;DHT22;9418;52.694;13.294;2024-01-30T00:45:57;1.50;80.20
18577;DHT22;9418;52.694;13.294;2024-01-30T00:48:24;1.40;99.90
18577;DHT22;9418;52.694;13.294;2024-01-30T00:50:50;1.40;99.90
18577;DHT22;9418;52.694;13.294;2024-01-30T00:53:17;1.40;99.90
18577;DHT22;9418;52.694;13.294;2024-01-30T00:55:44;1.50;99.90
18577;DHT22;9418;52.694;13.294;2024-01-30T00:58:11;1.60;99.90
18577;DHT22;9418;52.694;13.294;2024-01-30T01:00:38;1.60;94.00
18577;DHT22;9418;52.694;13.294;2024-01-30T01:03:05;1.60;20.30
18577;DHT22;9418;52.694;13.294;2024-01-30T01:05:32;1.60;23.10
18577;DHT22;9418;52.694;13.294;2024-01-30T01:07:58;1.50;23.40
18577;DHT22;9418;52.694;13.294;2024-01-30T01:10:25;1.50;22.70
18577;DHT22;9418;52.694;13.294;2024-01-30T01:12:52;1.40;22.10
18577;DHT22;9418;52.694;13.294;2024-01-30T01:15:20;1.40;80.60
18577;DHT22;9418;52.694;13.294;2024-01-30T01:17:47;1.40;83.50
18577;DHT22;9418;52.694;13.294;2024-01-30T01:20:14;1.50;85.10
18577;DHT22;9418;52.694;13.294;2024-01-30T01:22:41;1.50;24.80
18577;DHT22;9418;52.694;13.294;2024-01-30T01:25:08;1.50;26.70
18577;DHT22;9418;52.694;13.294;2024-01-30T01:27:35;1.60;28.50
18577;DHT22;9418;52.694;13.294;2024-01-30T01:30:08;1.50;33.50
18577;DHT22;9418;52.694;13.294;2024-01-30T01:32:37;1.40;31.90
18577;DHT22;9418;52.694;13.294;2024-01-30T01:35:04;1.40;27.20
18577;DHT22;9418;52.694;13.294;2024-01-30T01:37:31;1.30;26.70
18577;DHT22;9418;52.694;13.294;2024-01-30T01:39:58;1.30;21.70
18577;DHT22;9418;52.694;13.294;2024-01-30T01:42:24;1.30;85.50
18577;DHT22;9418;52.694;13.294;2024-01-30T01:44:51;1.40;21.60
18577;DHT22;9418;52.694;13.294;2024-01-30T01:47:18;1.40;20.20
18577;DHT22;9418;52.694;13.294;2024-01-30T01:49:46;1.40;24.70
18577;DHT22;9418;52.694;13.294;2024-01-30T01:52:13;1.30;22.80
18577;DHT22;9418;52.694;13.294;2024-01-30T01:54:39;1.30;24.10
18577;DHT22;9418;52.694;13.294;2024-01-30T01:57:06;1.20;24.30
18577;DHT22;9418;52.694;13.294;2024-01-30T01:59:33;1.10;20.40
18577;DHT22;9418;52.694;13.294;2024-01-30T02:02:01;1.30;21.30
18577;DHT22;9418;52.694;13.294;2024-01-30T02:04:28;1.30;23.00
18577;DHT22;9418;52.694;13.294;2024-01-30T02:06:56;1.30;99.90
18577;DHT22;9418;52.694;13.294;2024-01-30T02:09:23;1.30;24.20
18577;DHT22;9418;52.694;13.294;2024-01-30T02:11:50;1.30;25.50
18577;DHT22;9418;52.694;13.294;2024-01-30T02:14:16;1.30;26.20
18577;DHT22;9418;52.694;13.294;2024-01-30T02:16:43;1.50;76.20
18577;DHT22;9418;52.694;13.294;2024-01-30T02:19:10;1.40;24.30
18577;DHT22;9418;52.694;13.294;2024-01-30T02:21:38;1.40;33.30
18577;DHT22;9418;52.694;13.294;2024-01-30T02:24:05;1.40;28.40
18577;DHT22;9418;52.694;13.294;2024-01-30T02:26:32;1.40;31.10
18577;DHT22;9418;52.694;13.294;2024-01-30T02:28:59;1.40;31.90
18577;DHT22;9418;52.694;13.294;2024-01-30T02:31:25;1.30;33.20
18577;DHT22;9418;52.694;13.294;2024-01-30T02:33:52;1.30;24.40
18577;DHT22;9418;52.694;13.294;2024-01-30T02:36:18;1.50;28.30
18577;DHT22;9418;52.694;13.294;2024-01-30T02:38:46;1.40;35.40
18577;DHT22;9418;52.694;13.294;2024-01-30T02:41:13;1.40;36.90
18577;DHT22;9418;52.694;13.294;2024-01-30T02:43:40;1.30;34.90
18577;DHT22;9418;52.694;13.294;2024-01-30T02:46:06;1.30;34.00
18577;DHT22;9418;52.694;13.294;2024-01-30T02:48:33;1.10;31.50
18577;DHT22;9418;52.694;13.294;2024-01-30T02:51:00;1.10;27.70
18577;DHT22;9418;52.694;13.294;2024-01-30T02:53:26;1.00;25.60
18577;DHT22;9418;52.694;13.294;2024-01-30T02:55:54;1.00;90.10
18577;DHT22;9418;52.694;13.294;2024-01-30T02:58:21;1.10;99.90
18577;DHT22;9418;52.694;13.294;2024-01-30T03:00:47;1.00;89.80
18577;DHT22;9418;52.694;13.294;2024-01-30T03:03:14;1.00;99.90
18577;DHT22;9418;52.694;13.294;2024-01-30T03:05:40;1.00;99.90
18577;DHT22;9418;52.694;13.294;2024-01-30T03:08:07;1.00;99.90
18577;DHT22;9418;52.694;13.294;2024-01-30T03:10:33;1.00;99.90
18577;DHT22;9418;52.694;13.294;2024-01-30T03:13:01;1.00;99.90
18577;DHT22;9418;52.694;13.294;2024-01-30T03:15:28;0.90;99.90
18577;DHT22;9418;52.694;13.294;2024-01-30T03:17:55;0.90;99.90
18577;DHT22;9418;52.694;13.294;2024-01-30T03:20:21;0.90;99.90
18577;DHT22;9418;52.694;13.294;2024-01-30T03:22:48;0.90;99.90
18577;DHT22;9418;52.694;13.294;2024-01-30T03:25:14;0.90;99.90
18577;DHT22;9418;52.694;13.294;2024-01-30T03:27:41;0.90;99.90
18577;DHT22;9418;52.694;13.294;2024-01-30T03:30:09;0.80;99.90
18577;DHT22;9418;52.694;13.294;2024-01-30T03:32:36;0.80;99.90
18577;DHT22;9418;52.694;13.294;2024-01-30T03:35:03;0.80;99.90
18577;DHT22;9418;52.694;13.294;2024-01-30T03:37:29;0.80;99.90
18577;DHT22;9418;52.694;13.294;2024-01-30T03:39:56;0.70;99.90
18577;DHT22;9418;52.694;13.294;2024-01-30T03:42:23;0.70;99.90
18577;DHT22;9418;52.694;13.294;2024-01-30T03:44:49;0.70;99.90
18577;DHT22;9418;52.694;13.294;2024-01-30T03:47:20;0.60;99.90
18577;DHT22;9418;52.694;13.294;2024-01-30T03:49:47;0.60;99.90
18577;DHT22;9418;52.694;13.294;2024-01-30T03:52:13;0.60;99.90
18577;DHT22;9418;52.694;13.294;2024-01-30T03:54:40;0.50;99.90
18577;DHT22;9418;52.694;13.294;2024-01-30T03:57:06;0.50;99.90
18577;DHT22;9418;52.694;13.294;2024-01-30T03:59:33;0.50;99.90
18577;DHT22;9418;52.694;13.294;2024-01-30T04:02:00;0.50;99.90
18577;DHT22;9418;52.694;13.294;2024-01-30T04:04:28;0.50;99.90
18577;DHT22;9418;52.694;13.294;2024-01-30T04:06:54;0.50;99.90
18577;DHT22;9418;52.694;13.294;2024-01-30T04:09:21;0.50;99.90
18577;DHT22;9418;52.694;13.294;2024-01-30T04:11:47;0.50;99.90
18577;DHT22;9418;52.694;13.294;2024-01-30T04:14:14;0.50;99.90
18577;DHT22;9418;52.694;13.294;2024-01-30T04:16:40;0.50;99.90
18577;DHT22;9418;52.694;13.294;2024-01-30T04:19:07;0.50;99.90
18577;DHT22;9418;52.694;13.294;2024-01-30T04:21:35;0.50;99.90
18577;DHT22;9418;52.694;13.294;2024-01-30T04:24:02;0.40;99.90
18577;DHT22;9418;52.694;13.294;2024-01-30T04:26:28;0.40;99.90
18577;DHT22;9418;52.694;13.294;2024-01-30T04:28:55;0.40;99.90
18577;DHT22;9418;52.694;13.294;2024-01-30T04:31:21;0.40;99.90
18577;DHT22;9418;52.694;13.294;2024-01-30T04:33:48;0.40;99.90
18577;DHT22;9418;52.694;13.294;2024-01-30T04:36:14;0.50;99.90
18577;DHT22;9418;52.694;13.294;2024-01-30T04:38:42;0.40;99.90
18577;DHT22;9418;52.694;13.294;2024-01-30T04:41:09;0.50;99.90
18577;DHT22;9418;52.694;13.294;2024-01-30T04:43:36;0.50;99.90
18577;DHT22;9418;52.694;13.294;2024-01-30T04:46:02;0.50;99.90
18577;DHT22;9418;52.694;13.294;2024-01-30T04:48:29;0.50;99.90
18577;DHT22;9418;52.694;13.294;2024-01-30T04:50:56;0.50;99.90
18577;DHT22;9418;52.694;13.294;2024-01-30T04:53:22;0.50;99.90
18577;DHT22;9418;52.694;13.294;2024-01-30T04:55:50;0.60;99.90
18577;DHT22;9418;52.694;13.294;2024-01-30T04:58:17;0.50;99.90
18577;DHT22;9418;52.694;13.294;2024-01-30T05:00:43;0.60;99.90
18577;DHT22;9418;52.694;13.294;2024-01-30T05:03:11;0.50;99.90
18577;DHT22;9418;52.694;13.294;2024-01-30T05:05:38;0.60;99.90
18577;DHT22;9418;52.694;13.294;2024-01-30T05:08:04;0.60;99.90
18577;DHT22;9418;52.694;13.294;2024-01-30T05:10:31;0.60;99.90
18577;DHT22;9418;52.694;13.294;2024-01-30T05:12:59;0.60;99.90
18577;DHT22;9418;52.694;13.294;2024-01-30T05:15:26;0.70;99.90
18577;DHT22;9418;52.694;13.294;2024-01-30T05:17:52;0.70;99.90
18577;DHT22;9418;52.694;13.294;2024-01-30T05:20:19;0.70;99.90
18577;DHT22;9418;52.694;13.294;2024-01-30T05:22:46;0.60;99.90
18577;DHT22;9418;52.694;13.294;2024-01-30T05:25:13;0.60;99.90
18577;DHT22;9418;52.694;13.294;2024-01-30T05:27:40;0.50;99.90
18577;DHT22;9418;52.694;13.294;2024-01-30T05:30:09;0.60;99.90
18577;DHT22;9418;52.694;13.294;2024-01-30T05:32:35;0.60;99.90
18577;DHT22;9418;52.694;13.294;2024-01-30T05:35:02;0.60;99.90
18577;DHT22;9418;52.694;13.294;2024-01-30T05:37:29;0.70;99.90
18577;DHT22;9418;52.694;13.294;2024-01-30T05:39:56;0.80;99.90
18577;DHT22;9418;52.694;13.294;2024-01-30T05:42:23;0.80;99.90
18577;DHT22;9418;52.694;13.294;2024-01-30T05:44:49;0.70;99.90
18577;DHT22;9418;52.694;13.294;2024-01-30T05:47:17;0.70;99.90
18577;DHT22;9418;52.694;13.294;2024-01-30T05:49:44;0.70;99.90
18577;DHT22;9418;52.694;13.294;2024-01-30T05:52:10;0.60;99.90
18577;DHT22;9418;52.694;13.294;2024-01-30T05:54:37;0.70;99.90
18577;DHT22;9418;52.694;13.294;2024-01-30T05:57:04;0.70;99.90
18577;DHT22;9418;52.694;13.294;2024-01-30T05:59:31;0.70;99.90
18577;DHT22;9418;52.694;13.294;2024-01-30T06:01:58;0.70;99.90
18577;DHT22;9418;52.694;13.294;2024-01-30T06:04:26;0.60;99.90
18577;DHT22;9418;52.694;13.294;2024-01-30T06:06:52;0.60;99.90
18577;DHT22;9418;52.694;13.294;2024-01-30T06:09:19;0.60;99.90
18577;DHT22;9418;52.694;13.294;2024-01-30T06:11:46;0.60;99.90
18577;DHT22;9418;52.694;13.294;2024-01-30T06:14:12;0.60;99.90
18577;DHT22;9418;52.694;13.294;2024-01-30T06:16:39;0.60;99.90
18577;DHT22;9418;52.694;13.294;2024-01-30T06:19:05;0.70;99.90
18577;DHT22;9418;52.694;13.294;2024-01-30T06:21:33;0.70;99.90
18577;DHT22;9418;52.694;13.294;2024-01-30T06:24:02;0.70;99.90
18577;DHT22;9418;52.694;13.294;2024-01-30T06:26:28;0.80;99.90
18577;DHT22;9418;52.694;13.294;2024-01-30T06:28:55;1.00;99.90
18577;DHT22;9418;52.694;13.294;2024-01-30T06:31:21;1.00;99.90
18577;DHT22;9418;52.694;13.294;2024-01-30T06:33:48;1.00;99.90
18577;DHT22;9418;52.694;13.294;2024-01-30T06:36:15;1.00;99.90
18577;DHT22;9418;52.694;13.294;2024-01-30T06:38:43;1.00;99.90
18577;DHT22;9418;52.694;13.294;2024-01-30T06:41:09;1.10;99.90
18577;DHT22;9418;52.694;13.294;2024-01-30T06:43:36;1.10;99.90
18577;DHT22;9418;52.694;13.294;2024-01-30T06:46:03;1.10;99.90
18577;DHT22;9418;52.694;13.294;2024-01-30T06:48:29;1.20;99.90
18577;DHT22;9418;52.694;13.294;2024-01-30T06:50:57;1.30;99.90
18577;DHT22;9418;52.694;13.294;2024-01-30T06:53:23;1.40;99.90
18577;DHT22;9418;52.694;13.294;2024-01-30T06:55:53;1.50;99.90
18577;DHT22;9418;52.694;13.294;2024-01-30T06:58:19;1.50;99.90
18577;DHT22;9418;52.694;13.294;2024-01-30T07:00:46;1.50;99.90
18577;DHT22;9418;52.694;13.294;2024-01-30T07:03:13;1.50;99.90
18577;DHT22;9418;52.694;13.294;2024-01-30T07:05:39;1.50;99.90
18577;DHT22;9418;52.694;13.294;2024-01-30T07:08:06;1.40;99.90
18577;DHT22;9418;52.694;13.294;2024-01-30T07:10:32;1.40;99.90
18577;DHT22;9418;52.694;13.294;2024-01-30T07:13:01;1.40;99.90
18577;DHT22;9418;52.694;13.294;2024-01-30T07:15:29;1.40;99.90
18577;DHT22;9418;52.694;13.294;2024-01-30T07:17:56;1.40;99.90
18577;DHT22;9418;52.694;13.294;2024-01-30T07:20:22;1.40;99.90
18577;DHT22;9418;52.694;13.294;2024-01-30T07:22:49;1.60;99.90
18577;DHT22;9418;52.694;13.294;2024-01-30T07:25:16;1.70;99.90
18577;DHT22;9418;52.694;13.294;2024-01-30T07:27:43;1.80;99.90
18577;DHT22;9418;52.694;13.294;2024-01-30T07:30:11;1.80;88.20
18577;DHT22;9418;52.694;13.294;2024-01-30T07:32:38;1.80;79.70
18577;DHT22;9418;52.694;13.294;2024-01-30T07:35:05;1.90;21.80
18577;DHT22;9418;52.694;13.294;2024-01-30T07:37:31;1.90;25.00
18577;DHT22;9418;52.694;13.294;2024-01-30T07:39:58;1.90;27.20
18577;DHT22;9418;52.694;13.294;2024-01-30T07:42:25;1.90;29.10
18577;DHT22;9418;52.694;13.294;2024-01-30T07:44:51;1.90;26.20
18577;DHT22;9418;52.694;13.294;2024-01-30T07:47:19;2.00;26.70
18577;DHT22;9418;52.694;13.294;2024-01-30T07:49:46;2.10;27.50
18577;DHT22;9418;52.694;13.294;2024-01-30T07:52:13;2.00;31.60
18577;DHT22;9418;52.694;13.294;2024-01-30T07:54:39;2.10;31.40
18577;DHT22;9418;52.694;13.294;2024-01-30T07:57:06;2.10;31.90
18577;DHT22;9418;52.694;13.294;2024-01-30T07:59:33;2.10;31.50
18577;DHT22;9418;52.694;13.294;2024-01-30T08:02:00;2.20;32.60
18577;DHT22;9418;52.694;13.294;2024-01-30T08:04:27;2.30;35.90
18577;DHT22;9418;52.694;13.294;2024-01-30T08:06:54;2.30;37.20
18577;DHT22;9418;52.694;13.294;2024-01-30T08:09:21;2.40;36.80
18577;DHT22;9418;52.694;13.294;2024-01-30T08:11:47;2.30;37.90
18577;DHT22;9418;52.694;13.294;2024-01-30T08:14:14;2.40;39.50
18577;DHT22;9418;52.694;13.294;2024-01-30T08:16:40;2.50;46.60
18577;DHT22;9418;52.694;13.294;2024-01-30T08:19:07;2.50;51.20
18577;DHT22;9418;52.694;13.294;2024-01-30T08:21:35;2.60;50.90
18577;DHT22;9418;52.694;13.294;2024-01-30T08:24:04;2.70;57.30
18577;DHT22;9418;52.694;13.294;2024-01-30T08:26:31;2.80;61.70
18577;DHT22;9418;52.694;13.294;2024-01-30T08:28:58;2.90;66.40
18577;DHT22;9418;52.694;13.294;2024-01-30T08:31:25;2.80;56.90
18577;DHT22;9418;52.694;13.294;2024-01-30T08:33:51;3.00;57.40
18577;DHT22;9418;52.694;13.294;2024-01-30T08:36:19;3.20;63.00
18577;DHT22;9418;52.694;13.294;2024-01-30T08:38:46;3.20;66.70
18577;DHT22;9418;52.694;13.294;2024-01-30T08:41:13;3.30;70.50
18577;DHT22;9418;52.694;13.294;2024-01-30T08:43:40;3.40;70.50
18577;DHT22;9418;52.694;13.294;2024-01-30T08:46:07;3.60;86.40
18577;DHT22;9418;52.694;13.294;2024-01-30T08:48:33;3.70;91.50
18577;DHT22;9418;52.694;13.294;2024-01-30T08:51:01;3.80;92.70
18577;DHT22;9418;52.694;13.294;2024-01-30T08:53:28;4.00;98.10
18577;DHT22;9418;52.694;13.294;2024-01-30T08:55:56;3.80;91.50
18577;DHT22;9418;52.694;13.294;2024-01-30T08:58:24;4.00;99.90
18577;DHT22;9418;52.694;13.294;2024-01-30T09:00:51;4.00;99.90
18577;DHT22;9418;52.694;13.294;2024-01-30T09:03:18;4.00;99.90
18577;DHT22;9418;52.694;13.294;2024-01-30T09:05:44;4.10;99.90
18577;DHT22;9418;52.694;13.294;2024-01-30T09:08:11;4.10;99.90
18577;DHT22;9418;52.694;13.294;2024-01-30T09:10:38;4.20;99.90
18577;DHT22;9418;52.694;13.294;2024-01-30T09:13:06;4.20;99.90
18577;DHT22;9418;52.694;13.294;2024-01-30T09:15:32;4.30;99.90
18577;DHT22;9418;52.694;13.294;2024-01-30T09:17:59;4.40;99.90
18577;DHT22;9418;52.694;13.294;2024-01-30T09:20:25;4.50;99.90
18577;DHT22;9418;52.694;13.294;2024-01-30T09:22:52;4.50;99.90
18577;DHT22;9418;52.694;13.294;2024-01-30T09:25:18;4.70;99.90
18577;DHT22;9418;52.694;13.294;2024-01-30T09:27:45;4.80;99.90
18577;DHT22;9418;52.694;13.294;2024-01-30T09:30:13;4.90;99.90
18577;DHT22;9418;52.694;13.294;2024-01-30T09:32:40;5.10;99.90
18577;DHT22;9418;52.694;13.294;2024-01-30T09:35:07;5.20;99.90
18577;DHT22;9418;52.694;13.294;2024-01-30T09:37:34;5.30;99.90
18577;DHT22;9418;52.694;13.294;2024-01-30T09:40:00;5.30;99.90
18577;DHT22;9418;52.694;13.294;2024-01-30T09:42:33;5.50;99.90
18577;DHT22;9418;52.694;13.294;2024-01-30T09:44:59;5.70;99.90
18577;DHT22;9418;52.694;13.294;2024-01-30T09:47:27;5.80;99.90
18577;DHT22;9418;52.694;13.294;2024-01-30T09:49:55;5.90;99.90
18577;DHT22;9418;52.694;13.294;2024-01-30T09:52:23;6.10;99.90
18577;DHT22;9418;52.694;13.294;2024-01-30T09:54:49;6.40;99.90
18577;DHT22;9418;52.694;13.294;2024-01-30T09:57:17;6.90;99.90
18577;DHT22;9418;52.694;13.294;2024-01-30T09:59:44;7.30;99.90
18577;DHT22;9418;52.694;13.294;2024-01-30T10:02:10;7.20;99.90
18577;DHT22;9418;52.694;13.294;2024-01-30T10:04:38;7.50;99.90
18577;DHT22;9418;52.694;13.294;2024-01-30T10:07:05;7.20;99.90
18577;DHT22;9418;52.694;13.294;2024-01-30T10:09:32;7.40;99.90
18577;DHT22;9418;52.694;13.294;2024-01-30T10:12:00;7.40;99.90
18577;DHT22;9418;52.694;13.294;2024-01-30T10:14:29;7.60;99.90
18577;DHT22;9418;52.694;13.294;2024-01-30T10:16:55;7.70;99.90
18577;DHT22;9418;52.694;13.294;2024-01-30T10:19:23;7.90;99.90
18577;DHT22;9418;52.694;13.294;2024-01-30T10:21:51;8.10;99.90
18577;DHT22;9418;52.694;13.294;2024-01-30T10:24:18;8.60;99.90
18577;DHT22;9418;52.694;13.294;2024-01-30T10:26:45;9.20;99.90
18577;DHT22;9418;52.694;13.294;2024-01-30T10:29:11;9.50;99.90
18577;DHT22;9418;52.694;13.294;2024-01-30T10:31:38;9.20;99.90
18577;DHT22;9418;52.694;13.294;2024-01-30T10:34:04;9.00;99.90
18577;DHT22;9418;52.694;13.294;2024-01-30T10:36:36;8.80;99.90
18577;DHT22;9418;52.694;13.294;2024-01-30T10:39:07;8.90;99.90
18577;DHT22;9418;52.694;13.294;2024-01-30T10:41:40;9.00;99.90
18577;DHT22;9418;52.694;13.294;2024-01-30T10:44:09;8.70;99.90
18577;DHT22;9418;52.694;13.294;2024-01-30T10:46:38;8.80;99.90
18577;DHT22;9418;52.694;13.294;2024-01-30T10:49:05;8.70;99.90
18577;DHT22;9418;52.694;13.294;2024-01-30T10:51:32;8.60;99.90
18577;DHT22;9418;52.694;13.294;2024-01-30T10:54:01;8.60;99.90
18577;DHT22;9418;52.694;13.294;2024-01-30T10:56:32;8.50;99.90
18577;DHT22;9418;52.694;13.294;2024-01-30T10:59:00;8.70;99.90
18577;DHT22;9418;52.694;13.294;2024-01-30T11:01:27;8.90;99.90
18577;DHT22;9418;52.694;13.294;2024-01-30T11:03:55;9.40;99.90
18577;DHT22;9418;52.694;13.294;2024-01-30T11:06:22;9.50;99.90
18577;DHT22;9418;52.694;13.294;2024-01-30T11:09:00;8.90;99.90
18577;DHT22;9418;52.694;13.294;2024-01-30T11:11:27;9.00;99.90
18577;DHT22;9418;52.694;13.294;2024-01-30T11:13:55;9.70;99.90
18577;DHT22;9418;52.694;13.294;2024-01-30T11:16:22;10.20;99.90
18577;DHT22;9418;52.694;13.294;2024-01-30T11:18:50;9.40;99.90
18577;DHT22;9418;52.694;13.294;2024-01-30T11:21:17;9.40;99.90
18577;DHT22;9418;52.694;13.294;2024-01-30T11:23:44;9.30;99.90
18577;DHT22;9418;52.694;13.294;2024-01-30T11:26:11;9.20;99.90
18577;DHT22;9418;52.694;13.294;2024-01-30T11:28:38;8.80;99.90
18577;DHT22;9418;52.694;13.294;2024-01-30T11:31:06;8.90;99.90
18577;DHT22;9418;52.694;13.294;2024-01-30T11:33:33;8.90;99.90
18577;DHT22;9418;52.694;13.294;2024-01-30T11:36:01;8.70;99.90
18577;DHT22;9418;52.694;13.294;2024-01-30T11:38:28;8.80;99.90
18577;DHT22;9418;52.694;13.294;2024-01-30T11:40:55;8.60;99.90
18577;DHT22;9418;52.694;13.294;2024-01-30T11:43:23;8.50;99.90
18577;DHT22;9418;52.694;13.294;2024-01-30T11:45:50;8.40;99.90
18577;DHT22;9418;52.694;13.294;2024-01-30T11:48:18;8.30;99.90
18577;DHT22;9418;52.694;13.294;2024-01-30T11:50:46;8.10;99.90
18577;DHT22;9418;52.694;13.294;2024-01-30T11:53:13;8.20;99.90
18577;DHT22;9418;52.694;13.294;2024-01-30T11:55:40;8.20;99.90
18577;DHT22;9418;52.694;13.294;2024-01-30T11:58:06;8.20;99.90
18577;DHT22;9418;52.694;13.294;2024-01-30T12:00:33;8.20;99.90
18577;DHT22;9418;52.694;13.294;2024-01-30T12:03:00;8.20;99.90
18577;DHT22;9418;52.694;13.294;2024-01-30T12:05:29;8.10;99.90
18577;DHT22;9418;52.694;13.294;2024-01-30T12:07:56;8.20;99.90
18577;DHT22;9418;52.694;13.294;2024-01-30T12:10:24;8.30;99.90
18577;DHT22;9418;52.694;13.294;2024-01-30T12:12:51;8.40;99.90
18577;DHT22;9418;52.694;13.294;2024-01-30T12:15:18;8.30;99.90
18577;DHT22;9418;52.694;13.294;2024-01-30T12:17:47;8.40;99.90
18577;DHT22;9418;52.694;13.294;2024-01-30T12:20:15;8.50;99.90
18577;DHT22;9418;52.694;13.294;2024-01-30T12:22:44;8.70;99.90
18577;DHT22;9418;52.694;13.294;2024-01-30T12:25:12;8.90;99.90
18577;DHT22;9418;52.694;13.294;2024-01-30T12:27:39;9.00;99.90
18577;DHT22;9418;52.694;13.294;2024-01-30T12:30:06;9.10;99.90
18577;DHT22;9418;52.694;13.294;2024-01-30T12:32:34;9.50;99.90
18577;DHT22;9418;52.694;13.294;2024-01-30T12:35:01;10.00;99.90
18577;DHT22;9418;52.694;13.294;2024-01-30T12:37:28;10.40;99.90
18577;DHT22;9418;52.694;13.294;2024-01-30T12:39:56;10.60;99.90
18577;DHT22;9418;52.694;13.294;2024-01-30T12:42:23;10.80;99.90
18577;DHT22;9418;52.694;13.294;2024-01-30T12:44:50;10.40;99.90
18577;DHT22;9418;52.694;13.294;2024-01-30T12:47:16;10.50;99.90
18577;DHT22;9418;52.694;13.294;2024-01-30T12:49:43;10.10;99.90
18577;DHT22;9418;52.694;13.294;2024-01-30T12:52:10;9.80;99.90
18577;DHT22;9418;52.694;13.294;2024-01-30T12:54:37;9.70;99.90
18577;DHT22;9418;52.694;13.294;2024-01-30T12:57:05;9.80;99.90
18577;DHT22;9418;52.694;13.294;2024-01-30T12:59:32;9.50;99.90
18577;DHT22;9418;52.694;13.294;2024-01-30T13:02:00;9.40;99.90
18577;DHT22;9418;52.694;13.294;2024-01-30T13:04:29;9.50;99.90
18577;DHT22;9418;52.694;13.294;2024-01-30T13:06:55;9.30;99.90
18577;DHT22;9418;52.694;13.294;2024-01-30T13:09:23;9.20;99.90
18577;DHT22;9418;52.694;13.294;2024-01-30T13:11:50;9.00;99.90
18577;DHT22;9418;52.694;13.294;2024-01-30T13:14:18;8.90;99.90
18577;DHT22;9418;52.694;13.294;2024-01-30T13:16:45;8.80;99.90
18577;DHT22;9418;52.694;13.294;2024-01-30T13:19:11;8.80;99.90
18577;DHT22;9418;52.694;13.294;2024-01-30T13:21:38;8.70;99.90
18577;DHT22;9418;52.694;13.294;2024-01-30T13:24:06;8.70;99.90
18577;DHT22;9418;52.694;13.294;2024-01-30T13:26:32;8.60;99.90
18577;DHT22;9418;52.694;13.294;2024-01-30T13:28:59;8.60;99.90
18577;DHT22;9418;52.694;13.294;2024-01-30T13:31:27;8.60;99.90
18577;DHT22;9418;52.694;13.294;2024-01-30T13:33:55;8.60;99.90
18577;DHT22;9418;52.694;13.294;2024-01-30T13:36:22;8.60;99.90
18577;DHT22;9418;52.694;13.294;2024-01-30T13:38:48;8.50;99.90
18577;DHT22;9418;52.694;13.294;2024-01-30T13:41:15;8.60;99.90
18577;DHT22;9418;52.694;13.294;2024-01-30T13:43:43;8.50;99.90
18577;DHT22;9418;52.694;13.294;2024-01-30T13:46:10;8.50;99.90
18577;DHT22;9418;52.694;13.294;2024-01-30T13:48:38;8.50;99.90
18577;DHT22;9418;52.694;13.294;2024-01-30T13:51:04;8.50;99.90
18577;DHT22;9418;52.694;13.294;2024-01-30T13:53:31;8.60;99.90
18577;DHT22;9418;52.694;13.294;2024-01-30T13:55:58;8.60;99.90
18577;DHT22;9418;52.694;13.294;2024-01-30T13:58:25;8.60;99.90
18577;DHT22;9418;52.694;13.294;2024-01-30T14:00:51;8.40;99.90
18577;DHT22;9418;52.694;13.294;2024-01-30T14:03:18;8.40;99.90
18577;DHT22;9418;52.694;13.294;2024-01-30T14:05:46;8.40;99.90
18577;DHT22;9418;52.694;13.294;2024-01-30T14:08:13;8.30;99.90
18577;DHT22;9418;52.694;13.294;2024-01-30T14:10:40;8.30;99.90
18577;DHT22;9418;52.694;13.294;2024-01-30T14:13:06;8.30;99.90
18577;DHT22;9418;52.694;13.294;2024-01-30T14:15:33;8.20;99.90
18577;DHT22;9418;52.694;13.294;2024-01-30T14:18:00;8.20;99.90
18577;DHT22;9418;52.694;13.294;2024-01-30T14:20:26;8.10;99.90
18577;DHT22;9418;52.694;13.294;2024-01-30T14:22:54;8.10;99.90
18577;DHT22;9418;52.694;13.294;2024-01-30T14:25:21;8.10;99.90
18577;DHT22;9418;52.694;13.294;2024-01-30T14:27:47;8.10;99.90
18577;DHT22;9418;52.694;13.294;2024-01-30T14:30:14;8.00;99.90
18577;DHT22;9418;52.694;13.294;2024-01-30T14:32:40;8.10;99.90
18577;DHT22;9418;52.694;13.294;2024-01-30T14:35:09;8.00;99.90
18577;DHT22;9418;52.694;13.294;2024-01-30T14:37:37;8.00;99.90
18577;DHT22;9418;52.694;13.294;2024-01-30T14:40:07;8.00;99.90
18577;DHT22;9418;52.694;13.294;2024-01-30T14:42:34;7.90;99.90
18577;DHT22;9418;52.694;13.294;2024-01-30T14:45:01;7.90;99.90
18577;DHT22;9418;52.694;13.294;2024-01-30T14:47:28;7.90;99.90
18577;DHT22;9418;52.694;13.294;2024-01-30T14:49:54;7.90;99.90
18577;DHT22;9418;52.694;13.294;2024-01-30T14:52:21;7.90;99.90
18577;DHT22;9418;52.694;13.294;2024-01-30T14:54:48;7.80;99.90
18577;DHT22;9418;52.694;13.294;2024-01-30T14:57:15;7.80;99.90
18577;DHT22;9418;52.694;13.294;2024-01-30T14:59:42;7.70;99.90
18577;DHT22;9418;52.694;13.294;2024-01-30T15:02:09;7.70;99.90
18577;DHT22;9418;52.694;13.294;2024-01-30T15:04:36;7.70;99.90
18577;DHT22;9418;52.694;13.294;2024-01-30T15:07:03;7.60;99.90
18577;DHT22;9418;52.694;13.294;2024-01-30T15:09:30;7.60;99.90
18577;DHT22;9418;52.694;13.294;2024-01-30T15:11:57;7.50;99.90
18577;DHT22;9418;52.694;13.294;2024-01-30T15:14:25;7.50;99.90
18577;DHT22;9418;52.694;13.294;2024-01-30T15:16:51;7.40;99.90
18577;DHT22;9418;52.694;13.294;2024-01-30T15:19:18;7.40;99.90
18577;DHT22;9418;52.694;13.294;2024-01-30T15:21:44;7.30;99.90
18577;DHT22;9418;52.694;13.294;2024-01-30T15:24:11;7.30;99.90
18577;DHT22;9418;52.694;13.294;2024-01-30T15:26:40;7.30;99.90
18577;DHT22;9418;52.694;13.294;2024-01-30T15:29:07;7.20;99.90
18577;DHT22;9418;52.694;13.294;2024-01-30T15:31:35;7.20;99.90
18577;DHT22;9418;52.694;13.294;2024-01-30T15:34:01;7.10;99.90
18577;DHT22;9418;52.694;13.294;2024-01-30T15:36:29;7.10;99.90
18577;DHT22;9418;52.694;13.294;2024-01-30T15:38:55;7.10;99.90
18577;DHT22;9418;52.694;13.294;2024-01-30T15:41:22;7.00;99.90
18577;DHT22;9418;52.694;13.294;2024-01-30T15:43:48;6.90;99.90